createdAt,value
2023-02-14T00:01:11.385Z,100056.44
2023-02-14T00:04:20.330Z,100052.97
2023-02-14T00:07:25.805Z,100052.16
2023-02-14T00:10:31.994Z,100045.28
2023-02-14T00:13:40.135Z,100047.00
2023-02-14T00:16:44.225Z,100044.41
2023-02-14T00:19:50.648Z,100040.94
2023-02-14T00:22:57.218Z,100049.66
2023-02-14T00:26:03.077Z,100040.09
2023-02-14T00:29:15.502Z,99829.94
2023-02-14T00:32:21.678Z,100041.81
2023-02-14T00:35:27.981Z,100045.28
2023-02-14T00:38:33.971Z,100045.22
2023-02-14T00:41:40.715Z,100047.06
2023-02-14T00:44:48.946Z,100054.13
2023-02-14T00:47:55.457Z,100054.16
2023-02-14T00:51:01.001Z,100051.63
2023-02-14T00:54:08.139Z,100054.19
2023-02-14T00:57:13.604Z,100059.44
2023-02-14T01:00:23.898Z,100054.22
2023-02-14T01:03:30.111Z,99978.34
2023-02-14T01:06:36.705Z,100052.50
2023-02-14T01:09:42.360Z,100038.72
2023-02-14T01:12:48.630Z,100042.22
2023-02-14T01:15:56.779Z,100031.03
2023-02-14T01:19:04.265Z,100035.41
2023-02-14T01:22:09.674Z,100029.41
2023-02-14T01:25:15.890Z,100028.59
2023-02-14T01:28:21.509Z,100021.63
2023-02-14T01:31:33.871Z,99970.84
2023-02-14T01:34:39.434Z,100025.94
2023-02-14T01:37:46.323Z,100019.81
2023-02-14T01:40:51.717Z,100023.25
2023-02-14T01:44:05.744Z,100021.59
2023-02-14T01:47:15.910Z,100019.06
2023-02-14T01:50:29.983Z,100022.47
2023-02-14T01:53:36.365Z,100015.53
2023-02-14T01:56:51.285Z,100016.34
2023-02-14T02:00:23.410Z,100019.84
2023-02-14T02:03:40.451Z,100015.47
2023-02-14T02:06:55.079Z,100013.72
2023-02-14T02:10:07.871Z,100023.25
2023-02-14T02:13:21.574Z,100009.38
2023-02-14T02:16:54.262Z,100007.63
2023-02-14T02:20:54.213Z,100010.16
2023-02-14T02:24:34.350Z,100007.50
2023-02-14T02:28:22.154Z,100007.44
2023-02-14T02:32:17.535Z,100016.22
2023-02-14T02:35:52.606Z,100017.97
2023-02-14T02:39:21.507Z,100016.22
2023-02-14T02:42:49.497Z,100022.31
2023-02-14T02:46:23.755Z,100017.91
2023-02-14T02:50:04.524Z,100024.84
2023-02-14T02:53:27.426Z,100021.34
2023-02-14T02:56:51.330Z,100016.13
2023-02-14T03:00:02.656Z,100023.09
2023-02-14T03:03:26.436Z,100017.81
2023-02-14T03:06:33.646Z,99929.97
2023-02-14T03:10:02.291Z,100015.28
2023-02-14T03:13:52.846Z,100004.06
2023-02-14T03:17:19.009Z,100014.47
2023-02-14T03:20:30.349Z,100002.34
2023-02-14T03:23:50.704Z,100018.03
2023-02-14T03:27:09.321Z,100006.81
2023-02-14T03:30:31.584Z,100013.69
2023-02-14T03:33:52.122Z,100016.41
2023-02-14T03:37:10.223Z,100013.78
2023-02-14T03:40:25.704Z,100020.69
2023-02-14T03:43:42.793Z,100014.66
2023-02-14T03:46:55.748Z,100014.69
2023-02-14T03:50:12.221Z,100022.53
2023-02-14T03:53:28.004Z,100027.69
2023-02-14T03:56:42.186Z,100016.47
2023-02-14T03:59:52.820Z,100019.94
2023-02-14T04:03:12.019Z,100018.28
2023-02-14T04:06:20.700Z,100023.53
2023-02-14T04:09:27.309Z,100027.88
2023-02-14T04:12:38.084Z,100024.41
2023-02-14T04:15:47.811Z,100021.78
2023-02-14T04:19:09.021Z,100018.34
2023-02-14T04:22:15.368Z,100021.81
2023-02-14T04:25:21.123Z,100016.63
2023-02-14T04:28:27.348Z,100020.16
2023-02-14T04:31:35.509Z,100015.81
2023-02-14T04:34:42.619Z,100023.63
2023-02-14T04:37:48.635Z,100021.81
2023-02-14T04:40:55.943Z,100026.97
2023-02-14T04:44:01.364Z,100025.31
2023-02-14T04:47:11.760Z,100000.31
2023-02-14T04:50:18.149Z,100014.16
2023-02-14T04:53:25.358Z,100035.78
2023-02-14T04:56:30.922Z,100026.28
2023-02-14T04:59:37.460Z,100018.53
2023-02-14T05:02:45.613Z,100027.28
2023-02-14T05:05:51.905Z,100027.31
2023-02-14T05:08:57.703Z,100028.97
2023-02-14T05:12:04.158Z,100032.34
2023-02-14T05:15:10.144Z,100030.56
2023-02-14T05:18:19.192Z,100029.63
2023-02-14T05:21:24.566Z,100042.72
2023-02-14T05:24:30.801Z,100037.50
2023-02-14T05:27:36.432Z,100040.13
2023-02-14T05:30:42.801Z,100045.22
2023-02-14T05:33:51.355Z,100045.22
2023-02-14T05:36:57.889Z,99986.53
2023-02-14T05:40:03.558Z,100046.06
2023-02-14T05:43:10.925Z,100041.84
2023-02-14T05:46:16.529Z,100051.28
2023-02-14T05:49:25.609Z,100046.06
2023-02-14T05:52:31.516Z,100051.19
2023-02-14T05:55:38.036Z,100050.22
2023-02-14T05:58:43.495Z,100050.19
2023-02-14T06:01:49.849Z,100057.00
2023-02-14T06:04:58.065Z,100057.88
2023-02-14T06:08:05.623Z,100057.97
2023-02-14T06:11:11.060Z,100060.50
2023-02-14T06:14:17.384Z,100069.22
2023-02-14T06:17:23.140Z,100070.06
2023-02-14T06:20:32.973Z,100078.78
2023-02-14T06:23:38.410Z,100084.81
2023-02-14T06:26:44.815Z,100070.06
2023-02-14T06:29:50.606Z,100075.19
2023-02-14T06:32:57.353Z,100065.56
2023-02-14T06:36:05.465Z,100071.75
2023-02-14T06:39:11.728Z,100070.88
2023-02-14T06:42:17.094Z,100080.47
2023-02-14T06:45:23.295Z,100070.97
2023-02-14T06:48:28.782Z,100081.41
2023-02-14T06:51:37.933Z,100096.94
2023-02-14T06:54:43.624Z,100084.84
2023-02-14T06:57:50.015Z,100081.34
2023-02-14T07:00:57.758Z,100082.22
2023-02-14T07:04:04.214Z,100086.50
2023-02-14T07:07:12.307Z,100082.19
2023-02-14T07:10:19.549Z,100094.31
2023-02-14T07:13:24.906Z,100086.50
2023-02-14T07:16:31.148Z,100092.53
2023-02-14T07:19:36.867Z,100102.88
2023-02-14T07:22:46.150Z,100089.03
2023-02-14T07:25:51.539Z,100090.81
2023-02-14T07:28:57.733Z,100099.50
2023-02-14T07:32:04.328Z,100094.31
2023-02-14T07:35:13.316Z,100076.19
2023-02-14T07:38:22.492Z,100097.69
2023-02-14T07:41:28.735Z,100090.66
2023-02-14T07:44:34.331Z,100098.56
2023-02-14T07:47:40.635Z,100094.94
2023-02-14T07:50:46.276Z,100094.16
2023-02-14T07:53:55.270Z,100096.72
2023-02-14T07:57:00.749Z,100099.31
2023-02-14T08:00:09.720Z,100096.66
2023-02-14T08:03:18.624Z,100093.19
2023-02-14T08:06:26.247Z,100099.16
2023-02-14T08:09:34.423Z,100099.09
2023-02-14T08:12:56.611Z,100106.03
2023-02-14T08:16:09.774Z,100105.97
2023-02-14T08:19:19.397Z,100109.41
2023-02-14T08:22:25.030Z,100100.78
2023-02-14T08:25:34.664Z,100093.88
2023-02-14T08:28:40.427Z,100113.03
2023-02-14T08:31:47.628Z,99957.78
2023-02-14T08:34:53.051Z,100098.34
2023-02-14T08:37:59.418Z,100099.22
2023-02-14T08:41:09.215Z,100108.75
2023-02-14T08:44:16.678Z,100120.81
2023-02-14T08:47:22.046Z,100123.50
2023-02-14T08:50:28.315Z,100118.34
2023-02-14T08:53:33.682Z,100117.47
2023-02-14T08:56:43.050Z,100126.88
2023-02-14T08:59:49.005Z,100120.59
2023-02-14T09:02:56.792Z,100138.78
2023-02-14T09:06:07.130Z,100133.50
2023-02-14T09:09:13.400Z,100135.16
2023-02-14T09:12:22.158Z,100130.81
2023-02-14T09:15:28.560Z,100133.34
2023-02-14T09:18:34.448Z,100135.00
2023-02-14T09:21:40.770Z,100134.94
2023-02-14T09:24:46.686Z,100124.34
2023-02-14T09:27:55.642Z,100138.09
2023-02-14T09:31:02.010Z,100138.03
2023-02-14T09:34:08.477Z,100143.19
2023-02-14T09:37:15.680Z,100128.41
2023-02-14T09:40:24.268Z,100139.59
2023-02-14T09:43:48.816Z,100139.50
2023-02-14T09:47:02.463Z,100139.34
2023-02-14T09:50:11.163Z,100146.16
2023-02-14T09:53:30.113Z,100134.63
2023-02-14T09:56:54.383Z,100130.22
2023-02-14T10:00:20.851Z,100133.56
2023-02-14T10:04:08.818Z,100128.25
2023-02-14T10:07:30.217Z,100129.44
2023-02-14T10:10:44.835Z,100138.94
2023-02-14T10:14:00.464Z,100131.88
2023-02-14T10:17:19.912Z,100133.38
2023-02-14T10:20:35.402Z,100131.44
2023-02-14T10:23:52.403Z,100134.94
2023-02-14T10:27:12.886Z,100138.38
2023-02-14T10:30:22.564Z,100128.00
2023-02-14T10:33:41.234Z,100130.56
2023-02-14T10:37:18.618Z,100126.09
2023-02-14T10:41:01.278Z,100129.50
2023-02-14T10:44:33.560Z,100122.44
2023-02-14T10:47:59.251Z,100123.28
2023-02-14T10:51:22.315Z,100124.13
2023-02-14T10:54:41.922Z,100129.59
2023-02-14T10:57:55.001Z,100124.56
2023-02-14T11:01:10.036Z,100045.31
2023-02-14T11:04:20.039Z,100110.53
2023-02-14T11:07:29.962Z,100107.00
2023-02-14T11:10:38.024Z,100101.88
2023-02-14T11:13:45.656Z,100119.50
2023-02-14T11:16:52.142Z,100116.16
2023-02-14T11:20:07.345Z,100103.97
2023-02-14T11:23:27.560Z,100109.19
2023-02-14T11:26:38.408Z,100099.63
2023-02-14T11:29:52.715Z,100093.44
2023-02-14T11:32:59.559Z,100094.22
2023-02-14T11:36:13.800Z,100091.47
2023-02-14T11:39:33.235Z,100094.84
2023-02-14T11:42:51.601Z,100089.63
2023-02-14T11:46:17.634Z,100082.50
2023-02-14T11:49:33.811Z,100090.50
2023-02-14T11:52:54.041Z,100086.03
2023-02-14T11:56:03.457Z,100082.50
2023-02-14T11:59:09.907Z,100075.50
2023-02-14T12:02:30.512Z,100078.81
2023-02-14T12:05:48.908Z,100068.38
2023-02-14T12:08:54.436Z,100070.84
2023-02-14T12:12:07.700Z,100082.03
2023-02-14T12:15:37.913Z,100064.38
2023-02-14T12:18:59.267Z,100060.66
2023-02-14T12:22:09.673Z,99878.06
2023-02-14T12:25:23.880Z,100046.50
2023-02-14T12:28:44.184Z,100052.50
2023-02-14T12:35:21.655Z,100041.44
2023-02-14T12:38:45.666Z,100039.94
2023-02-14T12:42:13.506Z,100041.78
2023-02-14T12:45:48.053Z,100035.84
2023-02-14T12:49:26.380Z,100044.56
2023-02-14T12:53:16.005Z,100027.28
2023-02-14T12:56:42.267Z,100034.97
2023-02-14T13:00:12.490Z,100036.69
2023-02-14T13:03:58.528Z,100033.06
2023-02-14T13:07:23.888Z,100036.38
2023-02-14T13:10:56.548Z,100019.66
2023-02-14T13:14:32.169Z,100011.16
2023-02-14T13:17:50.164Z,100020.53
2023-02-14T13:21:04.488Z,100025.72
2023-02-14T13:24:22.974Z,100015.47
2023-02-14T13:27:36.576Z,100008.66
2023-02-14T13:30:43.713Z,99935.25
2023-02-14T13:33:57.754Z,100014.19
2023-02-14T13:37:15.740Z,99994.72
2023-02-14T13:40:28.233Z,100009.53
2023-02-14T13:43:52.178Z,99988.19
2023-02-14T13:46:58.630Z,100008.84
2023-02-14T13:50:07.943Z,100016.53
2023-02-14T13:53:34.731Z,100005.41
2023-02-14T13:56:40.521Z,100010.63
2023-02-14T13:59:46.798Z,100005.31
2023-02-14T14:02:54.941Z,100014.88
2023-02-14T14:06:09.685Z,100007.09
2023-02-14T14:10:01.795Z,100012.38
2023-02-14T14:13:10.834Z,100008.97
2023-02-14T14:16:30.804Z,100008.97
2023-02-14T14:19:44.349Z,100012.44
2023-02-14T14:22:54.040Z,100011.56
2023-02-14T14:26:05.986Z,100011.34
2023-02-14T14:29:25.113Z,100008.50
2023-02-14T14:32:35.361Z,100011.94
2023-02-14T14:35:40.738Z,100011.88
2023-02-14T14:38:53.728Z,100014.63
2023-02-14T14:42:11.603Z,100005.13
2023-02-14T14:45:28.780Z,100018.22
2023-02-14T14:48:42.982Z,100011.34
2023-02-14T14:51:49.683Z,100016.69
2023-02-14T14:54:55.870Z,100006.34
2023-02-14T14:58:09.310Z,100007.78
2023-02-14T15:01:33.087Z,99999.47
2023-02-14T15:04:39.477Z,100001.94
2023-02-14T15:07:44.949Z,100004.50
2023-02-14T15:10:58.997Z,99995.13
2023-02-14T15:14:09.158Z,99994.25
2023-02-14T15:17:24.446Z,99996.13
2023-02-14T15:20:29.863Z,100006.63
2023-02-14T15:23:36.352Z,100003.16
2023-02-14T15:26:42.072Z,100005.72
2023-02-14T15:30:02.594Z,100008.28
2023-02-14T15:33:10.740Z,100003.88
2023-02-14T15:36:25.843Z,100001.31
2023-02-14T15:39:40.196Z,100010.84
2023-02-14T15:42:49.037Z,100003.97
2023-02-14T15:46:03.162Z,100004.75
2023-02-14T15:49:18.092Z,100020.41
2023-02-14T15:52:23.883Z,100022.16
2023-02-14T15:55:31.061Z,100017.00
2023-02-14T15:58:40.455Z,100024.03
2023-02-14T16:01:56.353Z,100022.31
2023-02-14T16:05:11.313Z,100016.25
2023-02-14T16:08:34.168Z,100025.75
2023-02-14T16:11:41.460Z,100024.03
2023-02-14T16:14:48.591Z,100029.25
2023-02-14T16:17:56.891Z,100035.34
2023-02-14T16:21:20.226Z,100024.97
2023-02-14T16:24:25.624Z,100037.09
2023-02-14T16:27:31.864Z,100037.06
2023-02-14T16:30:37.475Z,100038.75
2023-02-14T16:33:46.510Z,100041.31
2023-02-14T16:36:52.698Z,100042.06
2023-02-14T16:39:59.647Z,100042.81
2023-02-14T16:43:05.080Z,100049.81
2023-02-14T16:46:16.005Z,100051.56
2023-02-14T16:49:24.684Z,100052.47
2023-02-14T16:52:32.858Z,100049.91
2023-02-14T16:55:38.692Z,100051.75
2023-02-14T16:58:45.116Z,100054.50
2023-02-14T17:01:50.562Z,100052.81
2023-02-14T17:05:00.158Z,100053.72
2023-02-14T17:08:09.338Z,100058.91
2023-02-14T17:11:15.763Z,100061.50
2023-02-14T17:14:40.132Z,100058.91
2023-02-14T17:17:50.667Z,100065.19
2023-02-14T17:21:02.294Z,100053.81
2023-02-14T17:24:09.295Z,100062.47
2023-02-14T17:27:14.673Z,100060.72
2023-02-14T17:30:22.158Z,100062.56
2023-02-14T17:33:30.584Z,100059.22
2023-02-14T17:36:40.582Z,100050.53
2023-02-14T17:39:46.151Z,100062.84
2023-02-14T17:42:52.337Z,100056.75
2023-02-14T17:45:58.398Z,100056.78
2023-02-14T17:49:04.913Z,100055.88
2023-02-14T17:52:13.060Z,100067.22
2023-02-14T17:55:19.364Z,100059.41
2023-02-14T17:58:24.806Z,100066.28
2023-02-14T18:01:36.472Z,100061.84
2023-02-14T18:04:42.487Z,100062.66
2023-02-14T18:07:53.881Z,100070.50
2023-02-14T18:11:00.087Z,100062.66
2023-02-14T18:14:06.538Z,100053.97
2023-02-14T18:17:11.964Z,100072.09
2023-02-14T18:20:18.479Z,100057.19
2023-02-14T18:23:27.243Z,100060.63
2023-02-14T18:26:34.474Z,100062.28
2023-02-14T18:29:40.360Z,100057.03
2023-02-14T18:32:46.589Z,100055.38
2023-02-14T18:35:51.995Z,100053.63
2023-02-14T18:39:02.026Z,100051.84
2023-02-14T18:42:07.407Z,100053.53
2023-02-14T18:45:13.697Z,100044.75
2023-02-14T18:48:19.066Z,100044.63
2023-02-14T18:51:28.504Z,100034.25
2023-02-14T18:54:36.757Z,100051.41
2023-02-14T18:57:43.544Z,100047.13
2023-02-14T19:00:48.981Z,100041.13
2023-02-14T19:03:56.370Z,100041.25
2023-02-14T19:07:04.608Z,100041.25
2023-02-14T19:10:14.779Z,100046.53
2023-02-14T19:13:20.975Z,100035.31
2023-02-14T19:16:36.950Z,100033.56
2023-02-14T19:19:43.103Z,100027.56
2023-02-14T19:22:49.630Z,100036.38
2023-02-14T19:25:58.008Z,100027.63
2023-02-14T19:29:07.402Z,100025.06
2023-02-14T19:32:13.359Z,100025.09
2023-02-14T19:35:19.675Z,100020.75
2023-02-14T19:38:25.016Z,100025.97
2023-02-14T19:41:37.545Z,100005.31
2023-02-14T19:44:43.153Z,100031.16
2023-02-14T19:47:49.627Z,100032.94
2023-02-14T19:50:59.560Z,100032.94
2023-02-14T19:54:09.894Z,100037.34
2023-02-14T19:57:18.704Z,100036.47
2023-02-14T20:00:25.502Z,100039.91
2023-02-14T20:03:30.933Z,100032.00
2023-02-14T20:06:37.187Z,100031.00
2023-02-14T20:09:42.795Z,100035.41
2023-02-14T20:12:52.159Z,100042.31
2023-02-14T20:15:57.512Z,100036.22
2023-02-14T20:19:06.585Z,100035.50
2023-02-14T20:22:12.012Z,100031.19
2023-02-14T20:25:18.292Z,100026.84
2023-02-14T20:28:26.440Z,100031.94
2023-02-14T20:31:33.746Z,100028.28
2023-02-14T20:34:39.358Z,100029.03
2023-02-14T20:37:45.857Z,100030.66
2023-02-14T20:40:51.180Z,100030.63
2023-02-14T20:44:06.985Z,100033.22
2023-02-14T20:47:13.261Z,100027.94
2023-02-14T20:50:19.935Z,100033.16
2023-02-14T20:53:26.580Z,100026.22
2023-02-14T20:56:34.028Z,100028.00
2023-02-14T20:59:44.873Z,100021.09
2023-02-14T21:02:51.312Z,100026.44
2023-02-14T21:05:56.745Z,100030.84
2023-02-14T21:09:04.232Z,100022.19
2023-02-14T21:12:10.778Z,100029.06
2023-02-14T21:15:19.960Z,100026.44
2023-02-14T21:18:25.409Z,100028.97
2023-02-14T21:21:36.555Z,100023.81
2023-02-14T21:24:43.346Z,100019.44
2023-02-14T21:27:49.602Z,100011.69
2023-02-14T21:31:06.907Z,100008.06
2023-02-14T21:34:13.289Z,100008.91
2023-02-14T21:37:18.857Z,100001.81
2023-02-14T21:40:25.084Z,99998.28
2023-02-14T21:43:30.407Z,99991.16
2023-02-14T21:46:42.552Z,99993.66
2023-02-14T21:50:03.606Z,99990.13
2023-02-14T21:53:10.143Z,99993.56
2023-02-14T21:56:20.430Z,99990.84
2023-02-14T21:59:26.751Z,99988.22
2023-02-14T22:02:35.373Z,99989.94
2023-02-14T22:05:41.601Z,99979.47
2023-02-14T22:08:47.455Z,99983.00
2023-02-14T22:11:53.640Z,99978.75
2023-02-14T22:15:00.453Z,99985.03
2023-02-14T22:18:09.481Z,99979.91
2023-02-14T22:21:18.116Z,99979.28
2023-02-14T22:24:24.637Z,99985.41
2023-02-14T22:27:30.389Z,99974.13
2023-02-14T22:30:36.684Z,99974.28
2023-02-14T22:33:45.059Z,99968.19
2023-02-14T22:36:51.450Z,99963.00
2023-02-14T22:39:57.651Z,99967.38
2023-02-14T22:43:03.881Z,99969.97
2023-02-14T22:46:13.394Z,99964.75
2023-02-14T22:49:22.409Z,99962.00
2023-02-14T22:52:27.858Z,99961.06
2023-02-14T22:55:34.380Z,99974.94
2023-02-14T22:58:39.797Z,99960.19
2023-02-14T23:01:46.803Z,99970.59
2023-02-14T23:04:57.326Z,99966.28
2023-02-14T23:08:04.871Z,99966.28
2023-02-14T23:11:12.795Z,99961.06
2023-02-14T23:14:37.223Z,99959.34
2023-02-14T23:17:58.440Z,99959.38
2023-02-14T23:21:27.395Z,99951.53
2023-02-14T23:24:33.055Z,99953.25
2023-02-14T23:27:43.352Z,99936.78
2023-02-14T23:30:49.248Z,99949.72
2023-02-14T23:33:55.573Z,99938.38
2023-02-14T23:37:05.124Z,99945.34
2023-02-14T23:40:12.974Z,99938.44
2023-02-14T23:43:18.389Z,99938.66
2023-02-14T23:46:24.875Z,99938.75
2023-02-14T23:49:31.767Z,99938.84
2023-02-14T23:52:42.021Z,99935.44
2023-02-14T23:55:47.642Z,99940.63
2023-02-14T23:58:53.896Z,99938.03
